Impacts TAF Board
For situational awareness. Not to be used for flight planning purposes.
IDs:

KDCA - Washington/National, VA, US

Issued at 2334 UTC 09 Dec 2022
Updated at 0246 UTC 10 Dec 2022
Potential Impact None Slight Moderate High
Time0152Z 10/03Z 10/04Z 10/05Z 10/06Z 10/07Z 10/08Z 10/09Z 10/10Z 10/11Z 10/12Z 10/13Z 10/14Z 10/15Z>>
Type OBS PRVL PRVL PRVL PRVL PRVL PRVL PRVL PRVL PRVL PRVL PRVL PRVL PRVL
VIS 10 >6 >6 >6 >6 >6 >6 >6 >6 >6 >6 >6 >6 >6
CIG -- -- -- -- -- -- -- -- -- 100 100 100 100 100
Cover CLR SKC SKC SKC SKC SKC SKC SKC SKC OVC OVC OVC OVC OVC
FltCat VFR VFR VFR VFR VFR VFR VFR VFR VFR VFR VFR VFR VFR VFR
WX -- -- -- -- -- -- -- -- -- -- -- -- -- --
WDir 40 30 30 30 30 30 30 30 30 40 40 40 40 40
WSpd 3 3 3 3 3 3 3 3 3 6 6 6 6 6
WGst -- -- -- -- -- -- -- -- -- -- -- -- -- --
WSHgt -- -- -- -- -- -- -- -- -- -- -- -- -- --
WSDir -- -- -- -- -- -- -- -- -- -- -- -- -- --
WSSpd -- -- -- -- -- -- -- -- -- -- -- -- -- --
Raw TAF
KDCA 092334Z 1000/1106 03003KT P6SM SKC
  FM101100 04006KT P6SM OVC100


Raw METAR
KDCA 100152Z 04003KT 10SM CLR 06/M01 A3030 RMK AO2 SLP259 T00561011
KDCA 100052Z 05003KT 10SM CLR 05/M01 A3029 RMK AO2 SLP256 T00501006
KDCA 092352Z 11004KT 10SM CLR 06/M01 A3028 RMK AO2 SLP253 T00561011 10100 20056 53010

METAR Board
Radar Display
Forecast Discussion
For situational awareness. Not to be used for flight planning purposes.